Time;durP1;ratioP1;P1;durP2;ratioP2;P2;SDS_P1;SDS_P2;PMS_P1;PMS_P2;Temp;Humidity;BMP_temperature;BMP_pressure;BME280_temperature;BME280_humidity;BME280_pressure;Samples;Min_cycle;Max_cycle;Signal;HPM_P1;HPM_P2
2022/08/15 00:00:44;;;;;;;;;;;22.40;71.30;;;;;;5013889;28;19941;-82
2022/08/15 00:03:17;;;;;;;;;;;22.40;71.70;;;;;;4995322;28;19914;-81
2022/08/15 00:05:43;;;;;;;;;;;22.30;71.50;;;;;;4989808;28;20000;-82
2022/08/15 00:08:09;;;;;;;;;;;22.30;71.40;;;;;;5014182;28;19961;-82
2022/08/15 00:10:35;;;;;;;;;;;22.30;71.70;;;;;;4995938;28;19914;-82
2022/08/15 00:13:08;;;;;;;;;;;22.30;71.80;;;;;;5011758;28;19924;-82
2022/08/15 00:15:33;;;;;;;;;;;22.30;71.40;;;;;;5009704;28;19915;-82
2022/08/15 00:17:59;;;;;;;;;;;22.30;70.90;;;;;;4987218;28;19921;-80
2022/08/15 00:20:24;;;;;;;;;;;22.20;71.10;;;;;;5014167;28;19952;-82
2022/08/15 00:22:51;;;;;;;;;;;22.20;71.10;;;;;;4991546;28;19925;-82
2022/08/15 00:25:17;;;;;;;;;;;22.20;71.80;;;;;;5004842;28;19949;-79
2022/08/15 00:27:43;;;;;;;;;;;22.20;71.70;;;;;;4990729;28;19987;-81
2022/08/15 00:30:09;;;;;;;;;;;22.20;71.80;;;;;;4990065;28;19961;-82
2022/08/15 00:32:36;;;;;;;;;;;22.20;71.70;;;;;;4993245;28;19976;-80
2022/08/15 00:35:03;;;;;;;;;;;22.20;71.10;;;;;;4989384;28;19932;-82
2022/08/15 00:37:29;;;;;;;;;;;22.20;71.50;;;;;;5011695;28;19919;-82
2022/08/15 00:39:54;;;;;;;;;;;22.20;71.70;;;;;;5019086;28;19905;-80
2022/08/15 00:42:23;;;;;;;;;;;22.20;71.60;;;;;;5034789;28;19922;-79
2022/08/15 00:44:49;;;;;;;;;;;22.20;71.30;;;;;;5010436;28;19910;-82
2022/08/15 00:47:18;;;;;;;;;;;22.20;71.10;;;;;;5011035;28;19914;-80
2022/08/15 00:49:45;;;;;;;;;;;22.10;71.20;;;;;;5000043;28;19914;-82
2022/08/15 00:52:19;;;;;;;;;;;22.10;71.20;;;;;;4993593;28;19917;-82
2022/08/15 00:54:53;;;;;;;;;;;22.10;71.50;;;;;;5015299;28;19917;-82
2022/08/15 00:57:24;;;;;;;;;;;22.10;71.50;;;;;;4994224;28;20017;-82
2022/08/15 00:59:54;;;;;;;;;;;22.00;72.30;;;;;;5001983;28;19918;-82
2022/08/15 01:02:21;;;;;;;;;;;22.00;72.40;;;;;;4993349;28;20416;-81
2022/08/15 01:04:47;;;;;;;;;;;22.00;72.20;;;;;;5008059;28;19921;-81
2022/08/15 01:07:13;;;;;;;;;;;22.00;71.80;;;;;;4993508;28;19914;-82
2022/08/15 01:09:39;;;;;;;;;;;22.00;71.70;;;;;;4989078;28;19918;-82
2022/08/15 01:12:16;;;;;;;;;;;22.00;72.40;;;;;;4989711;28;19917;-81
2022/08/15 01:14:43;;;;;;;;;;;22.00;72.30;;;;;;4986414;28;19921;-81
2022/08/15 01:17:09;;;;;;;;;;;22.00;72.30;;;;;;5029504;28;19917;-80
2022/08/15 01:19:37;;;;;;;;;;;22.00;71.80;;;;;;5024179;28;19925;-80
2022/08/15 01:22:08;;;;;;;;;;;22.00;71.50;;;;;;5021499;28;19967;-79
2022/08/15 01:24:49;;;;;;;;;;;22.00;71.30;;;;;;5003861;28;19922;-81
2022/08/15 01:27:15;;;;;;;;;;;22.10;70.60;;;;;;4991828;28;19913;-81
2022/08/15 01:29:41;;;;;;;;;;;22.10;70.80;;;;;;5013957;28;19913;-82
2022/08/15 01:32:07;;;;;;;;;;;22.10;71.10;;;;;;4987529;28;19917;-81
2022/08/15 01:34:32;;;;;;;;;;;22.20;70.70;;;;;;4995992;28;20019;-82
2022/08/15 01:36:58;;;;;;;;;;;22.00;70.80;;;;;;4988392;28;20242;-82
2022/08/15 01:39:33;;;;;;;;;;;22.20;69.20;;;;;;4995082;28;20019;-82
2022/08/15 01:42:21;;;;;;;;;;;22.20;69.10;;;;;;4996751;28;20319;-80
2022/08/15 01:45:10;;;;;;;;;;;22.10;69.80;;;;;;4993779;28;19972;-82
2022/08/15 01:47:54;;;;;;;;;;;22.10;69.30;;;;;;5010502;28;19996;-82
2022/08/15 01:50:55;;;;;;;;;;;22.10;70.30;;;;;;4995451;28;19919;-80
2022/08/15 01:53:23;;;;;;;;;;;22.10;69.90;;;;;;4896470;29;20394;-82
2022/08/15 01:56:11;;;;;;;;;;;22.30;69.40;;;;;;4979329;28;19913;-82
2022/08/15 01:58:38;;;;;;;;;;;22.40;68.50;;;;;;5019051;28;19917;-82
2022/08/15 02:01:07;;;;;;;;;;;22.40;69.40;;;;;;4988739;28;20013;-82
2022/08/15 02:03:36;;;;;;;;;;;22.40;69.90;;;;;;4989290;28;19913;-82
2022/08/15 02:06:06;;;;;;;;;;;22.30;70.30;;;;;;4985621;28;20308;-81
2022/08/15 02:08:32;;;;;;;;;;;22.30;70.40;;;;;;5008516;28;19920;-80
2022/08/15 02:10:57;;;;;;;;;;;22.30;70.40;;;;;;5011247;28;20021;-82
2022/08/15 02:13:24;;;;;;;;;;;22.30;70.00;;;;;;4989898;28;19914;-82
2022/08/15 02:15:50;;;;;;;;;;;22.30;70.00;;;;;;5001321;28;19945;-81
2022/08/15 02:18:15;;;;;;;;;;;22.20;70.30;;;;;;4989233;28;19921;-81
2022/08/15 02:20:41;;;;;;;;;;;22.20;69.90;;;;;;4992102;28;19921;-82
2022/08/15 02:23:07;;;;;;;;;;;22.10;70.10;;;;;;5004707;28;19918;-82
2022/08/15 02:25:32;;;;;;;;;;;22.20;69.60;;;;;;5011554;28;19913;-81
2022/08/15 02:27:58;;;;;;;;;;;22.10;69.60;;;;;;5012005;28;19917;-82
2022/08/15 02:30:25;;;;;;;;;;;22.10;70.00;;;;;;4977990;28;19910;-82
2022/08/15 02:32:50;;;;;;;;;;;22.10;70.10;;;;;;4984070;28;20025;-82
2022/08/15 02:35:16;;;;;;;;;;;22.00;70.70;;;;;;5009415;28;19976;-82
2022/08/15 02:37:43;;;;;;;;;;;22.00;70.60;;;;;;4993180;28;20284;-82
2022/08/15 02:40:10;;;;;;;;;;;22.00;71.10;;;;;;4978837;28;19918;-82
2022/08/15 02:42:36;;;;;;;;;;;22.00;71.20;;;;;;4993962;28;20373;-81
2022/08/15 02:45:03;;;;;;;;;;;21.90;71.40;;;;;;4982802;28;19921;-82
2022/08/15 02:47:29;;;;;;;;;;;21.80;71.70;;;;;;5002630;28;19920;-82
2022/08/15 02:49:54;;;;;;;;;;;21.90;71.70;;;;;;5000135;28;20392;-82
2022/08/15 02:52:20;;;;;;;;;;;21.90;71.20;;;;;;4982593;28;20004;-82
2022/08/15 02:54:45;;;;;;;;;;;21.90;71.20;;;;;;5011071;28;20007;-82
2022/08/15 02:57:11;;;;;;;;;;;21.90;70.40;;;;;;5010412;28;19913;-82
2022/08/15 02:59:36;;;;;;;;;;;21.80;69.70;;;;;;5011057;28;20372;-82
2022/08/15 03:02:02;;;;;;;;;;;21.90;70.00;;;;;;5027138;28;19968;-79
2022/08/15 03:04:30;;;;;;;;;;;21.90;69.40;;;;;;5023868;28;19913;-82
2022/08/15 03:06:56;;;;;;;;;;;21.90;69.40;;;;;;4997002;28;19914;-81
2022/08/15 03:09:22;;;;;;;;;;;21.90;69.40;;;;;;5003909;28;19918;-80
2022/08/15 03:11:47;;;;;;;;;;;22.00;69.00;;;;;;4990998;28;20032;-82
2022/08/15 03:14:16;;;;;;;;;;;21.90;68.90;;;;;;4984158;28;20194;-82
2022/08/15 03:16:43;;;;;;;;;;;22.00;68.30;;;;;;4990353;28;19914;-82
2022/08/15 03:19:10;;;;;;;;;;;22.00;67.60;;;;;;4985637;28;19957;-82
2022/08/15 03:21:36;;;;;;;;;;;21.90;67.60;;;;;;4995144;28;19949;-82
2022/08/15 03:24:02;;;;;;;;;;;22.00;67.60;;;;;;5010408;28;19996;-82
2022/08/15 03:26:27;;;;;;;;;;;22.00;67.40;;;;;;4992747;28;20004;-82
2022/08/15 03:28:53;;;;;;;;;;;21.90;68.10;;;;;;5002968;28;20021;-82
2022/08/15 03:31:18;;;;;;;;;;;21.90;67.20;;;;;;5013450;28;19913;-82
2022/08/15 03:33:47;;;;;;;;;;;21.90;66.30;;;;;;5003284;28;20376;-82
2022/08/15 03:36:17;;;;;;;;;;;21.90;66.40;;;;;;4983531;28;19929;-81
2022/08/15 03:38:44;;;;;;;;;;;21.90;67.50;;;;;;4989962;28;19914;-81
2022/08/15 03:41:10;;;;;;;;;;;21.90;67.90;;;;;;4993142;28;19940;-82
2022/08/15 03:43:37;;;;;;;;;;;21.80;67.30;;;;;;5022664;23;19928;-85
2022/08/15 03:46:07;;;;;;;;;;;21.80;66.70;;;;;;5065930;28;19912;-85
2022/08/15 03:48:34;;;;;;;;;;;21.80;66.20;;;;;;5069096;28;20327;-85
2022/08/15 03:51:01;;;;;;;;;;;21.80;65.90;;;;;;5069626;28;19961;-85
2022/08/15 03:53:32;;;;;;;;;;;21.80;65.60;;;;;;5052865;28;20347;-85
2022/08/15 03:55:58;;;;;;;;;;;21.80;65.60;;;;;;5050239;28;19913;-85
2022/08/15 03:58:24;;;;;;;;;;;21.80;65.70;;;;;;5051514;28;19939;-85
2022/08/15 04:00:49;;;;;;;;;;;21.70;65.90;;;;;;5042189;28;19920;-85
2022/08/15 04:03:17;;;;;;;;;;;21.70;66.60;;;;;;5048518;28;19920;-84
2022/08/15 04:05:44;;;;;;;;;;;21.70;66.40;;;;;;5049340;28;20231;-85
2022/08/15 04:08:11;;;;;;;;;;;21.60;66.30;;;;;;5045401;28;19923;-83
2022/08/15 04:10:37;;;;;;;;;;;21.70;66.10;;;;;;5052317;28;19913;-84
2022/08/15 04:13:03;;;;;;;;;;;21.60;65.60;;;;;;5046133;28;19919;-84
2022/08/15 04:15:29;;;;;;;;;;;21.60;64.80;;;;;;5048695;28;19913;-86
2022/08/15 04:17:54;;;;;;;;;;;21.60;64.90;;;;;;5045188;28;19913;-83
2022/08/15 04:20:20;;;;;;;;;;;21.60;64.90;;;;;;5045005;28;19917;-86
2022/08/15 04:22:49;;;;;;;;;;;21.70;65.10;;;;;;5035597;28;19913;-86
2022/08/15 04:25:19;;;;;;;;;;;21.70;65.10;;;;;;5041182;28;19970;-85
2022/08/15 04:27:46;;;;;;;;;;;21.70;65.00;;;;;;5040791;28;19913;-86
2022/08/15 04:30:12;;;;;;;;;;;21.70;65.20;;;;;;5059856;28;20328;-86
2022/08/15 04:32:38;;;;;;;;;;;21.60;64.90;;;;;;5032769;28;19948;-86
2022/08/15 04:35:03;;;;;;;;;;;21.70;65.20;;;;;;5041542;28;19920;-85
2022/08/15 04:37:32;;;;;;;;;;;21.70;65.00;;;;;;5048902;28;19921;-86
2022/08/15 04:39:58;;;;;;;;;;;21.60;65.30;;;;;;5046184;28;20410;-86
2022/08/15 04:42:24;;;;;;;;;;;21.70;65.20;;;;;;5048441;28;19913;-86
2022/08/15 04:44:50;;;;;;;;;;;21.70;64.80;;;;;;5042221;28;19917;-86
2022/08/15 04:47:16;;;;;;;;;;;21.70;65.40;;;;;;5039007;28;20398;-86
2022/08/15 04:49:42;;;;;;;;;;;21.70;65.00;;;;;;5044678;28;19913;-86
2022/08/15 04:52:10;;;;;;;;;;;21.80;64.70;;;;;;5036762;28;19920;-86
2022/08/15 04:54:35;;;;;;;;;;;21.80;65.30;;;;;;5049526;28;20368;-86
2022/08/15 04:57:02;;;;;;;;;;;21.80;65.40;;;;;;5034142;28;20018;-86
2022/08/15 04:59:27;;;;;;;;;;;21.80;63.60;;;;;;5046564;28;19921;-86
2022/08/15 05:01:53;;;;;;;;;;;22.00;61.30;;;;;;5045999;28;20003;-86
2022/08/15 05:04:19;;;;;;;;;;;22.10;60.30;;;;;;5069101;28;19923;-87
2022/08/15 05:06:44;;;;;;;;;;;22.10;60.10;;;;;;5046564;28;19950;-86
2022/08/15 05:09:10;;;;;;;;;;;22.10;60.50;;;;;;5069469;28;19916;-87
2022/08/15 05:11:36;;;;;;;;;;;22.20;60.20;;;;;;5063676;28;19950;-87
2022/08/15 05:14:02;;;;;;;;;;;22.30;59.40;;;;;;5061358;28;19960;-87
2022/08/15 05:16:27;;;;;;;;;;;22.30;59.40;;;;;;5060886;28;20319;-88
2022/08/15 05:18:53;;;;;;;;;;;22.30;59.90;;;;;;5059740;28;19916;-86
2022/08/15 05:21:18;;;;;;;;;;;22.40;58.90;;;;;;5041754;28;19920;-85
2022/08/15 05:23:44;;;;;;;;;;;22.40;59.00;;;;;;5046333;28;19912;-87
2022/08/15 05:26:10;;;;;;;;;;;22.60;58.40;;;;;;5048273;28;19916;-87
2022/08/15 05:28:36;;;;;;;;;;;22.60;58.10;;;;;;5042784;28;20382;-87
2022/08/15 05:31:03;;;;;;;;;;;22.60;57.40;;;;;;5044404;28;19943;-89
2022/08/15 05:33:29;;;;;;;;;;;22.60;58.70;;;;;;5046404;28;19912;-89
2022/08/15 05:35:56;;;;;;;;;;;22.60;58.50;;;;;;5060276;28;19912;-88
2022/08/15 05:38:41;;;;;;;;;;;22.70;57.20;;;;;;5039937;28;19917;-86
2022/08/15 05:41:14;;;;;;;;;;;22.70;57.20;;;;;;5042831;28;19916;-89
2022/08/15 05:43:51;;;;;;;;;;;22.70;57.20;;;;;;4982871;28;1767133;-89
2022/08/15 05:46:35;;;;;;;;;;;22.70;57.90;;;;;;5060625;28;19917;-86
2022/08/15 05:49:20;;;;;;;;;;;22.70;58.20;;;;;;5060926;28;19916;-86
2022/08/15 05:51:48;;;;;;;;;;;22.70;57.80;;;;;;5064715;28;19917;-86
2022/08/15 05:54:21;;;;;;;;;;;22.60;58.40;;;;;;5072074;28;19901;-86
2022/08/15 05:56:53;;;;;;;;;;;22.70;59.80;;;;;;5056556;28;19912;-86
2022/08/15 05:59:19;;;;;;;;;;;22.60;60.50;;;;;;5070718;28;19923;-86
2022/08/15 06:01:49;;;;;;;;;;;22.70;59.40;;;;;;5065331;28;19921;-86
2022/08/15 06:04:22;;;;;;;;;;;22.70;60.50;;;;;;5064354;28;19924;-86
2022/08/15 06:06:48;;;;;;;;;;;22.80;59.50;;;;;;5062241;28;20241;-86
2022/08/15 06:09:32;;;;;;;;;;;22.70;60.10;;;;;;5064166;28;19916;-85
2022/08/15 06:11:59;;;;;;;;;;;22.70;60.70;;;;;;5058820;28;19951;-84
2022/08/15 06:14:25;;;;;;;;;;;22.60;61.30;;;;;;5064796;28;19901;-84
2022/08/15 06:16:52;;;;;;;;;;;22.60;61.70;;;;;;5084259;28;19908;-84
2022/08/15 06:19:29;;;;;;;;;;;22.50;62.30;;;;;;5044726;28;19922;-84
2022/08/15 06:22:17;;;;;;;;;;;22.60;62.30;;;;;;5065939;28;19920;-84
2022/08/15 06:24:54;;;;;;;;;;;22.50;62.70;;;;;;5059900;28;20310;-84
2022/08/15 06:27:31;;;;;;;;;;;22.50;61.20;;;;;;5039175;28;20376;-87
2022/08/15 06:30:09;;;;;;;;;;;22.50;61.10;;;;;;5047756;28;19913;-87
2022/08/15 06:32:39;;;;;;;;;;;22.60;61.40;;;;;;5056355;28;19964;-85
2022/08/15 06:35:09;;;;;;;;;;;22.70;59.20;;;;;;5041567;28;20368;-85
2022/08/15 06:37:51;;;;;;;;;;;22.80;59.80;;;;;;5044614;28;20005;-86
2022/08/15 06:40:23;;;;;;;;;;;23.00;57.50;;;;;;5037031;28;20682;-86
2022/08/15 06:42:49;;;;;;;;;;;23.00;57.10;;;;;;5060841;28;19920;-86
2022/08/15 06:45:18;;;;;;;;;;;23.10;56.70;;;;;;5076500;28;19915;-85
2022/08/15 06:47:44;;;;;;;;;;;23.30;55.70;;;;;;5062931;28;20008;-86
2022/08/15 06:50:13;;;;;;;;;;;23.30;55.90;;;;;;5045793;28;19952;-85
2022/08/15 06:52:39;;;;;;;;;;;23.30;55.70;;;;;;5053037;28;19995;-85
2022/08/15 06:55:05;;;;;;;;;;;23.50;55.30;;;;;;5053505;28;19982;-84
2022/08/15 06:57:37;;;;;;;;;;;23.50;55.10;;;;;;5045159;28;20371;-84
2022/08/15 07:00:15;;;;;;;;;;;23.60;55.10;;;;;;5051607;28;19916;-84
2022/08/15 07:02:57;;;;;;;;;;;23.60;55.30;;;;;;5073579;28;19955;-85
2022/08/15 07:05:32;;;;;;;;;;;23.80;54.90;;;;;;5070482;28;19919;-84
2022/08/15 07:08:01;;;;;;;;;;;23.60;55.30;;;;;;5050603;28;19970;-84
2022/08/15 07:10:34;;;;;;;;;;;23.60;55.70;;;;;;5066786;28;19974;-85
2022/08/15 07:13:15;;;;;;;;;;;23.60;55.50;;;;;;5049342;28;20292;-83
2022/08/15 07:15:46;;;;;;;;;;;23.70;55.50;;;;;;5066344;28;19939;-86
2022/08/15 07:18:19;;;;;;;;;;;23.80;56.00;;;;;;5048964;28;19920;-86
2022/08/15 07:20:45;;;;;;;;;;;23.80;55.70;;;;;;5068785;28;19917;-86
2022/08/15 07:23:15;;;;;;;;;;;23.80;56.00;;;;;;5053429;28;19935;-87
2022/08/15 07:25:45;;;;;;;;;;;23.90;55.70;;;;;;5044441;28;19916;-82
2022/08/15 07:28:11;;;;;;;;;;;24.00;55.30;;;;;;5065680;28;19955;-84
2022/08/15 07:30:53;;;;;;;;;;;24.10;56.00;;;;;;5051406;28;20463;-82
2022/08/15 07:33:57;;;;;;;;;;;24.10;56.70;;;;;;5059500;28;19913;-82
2022/08/15 07:36:26;;;;;;;;;;;24.10;55.10;;;;;;4968670;28;19918;-82
2022/08/15 07:38:51;;;;;;;;;;;24.10;56.20;;;;;;4967016;28;20227;-82
2022/08/15 07:41:23;;;;;;;;;;;24.20;55.90;;;;;;5011915;28;19909;-82
2022/08/15 07:43:56;;;;;;;;;;;24.20;55.80;;;;;;5050932;28;19916;-83
2022/08/15 07:46:37;;;;;;;;;;;24.30;55.10;;;;;;5050949;28;19920;-82
2022/08/15 07:49:18;;;;;;;;;;;24.30;55.90;;;;;;5065415;28;19913;-83
2022/08/15 07:51:48;;;;;;;;;;;24.40;55.60;;;;;;5070783;28;19925;-83
2022/08/15 07:54:40;;;;;;;;;;;24.40;54.70;;;;;;5068711;28;19916;-83
2022/08/15 07:57:06;;;;;;;;;;;24.50;55.30;;;;;;5069868;28;19938;-83
2022/08/15 07:59:36;;;;;;;;;;;24.50;55.60;;;;;;5058492;28;19924;-83
2022/08/15 08:02:24;;;;;;;;;;;24.40;56.80;;;;;;5048550;28;19913;-83
2022/08/15 08:04:49;;;;;;;;;;;24.50;55.30;;;;;;5064297;28;19912;-82
2022/08/15 08:07:15;;;;;;;;;;;24.40;56.00;;;;;;5063919;28;19932;-82
2022/08/15 08:09:55;;;;;;;;;;;24.50;55.00;;;;;;5063072;28;19921;-82
2022/08/15 08:12:39;;;;;;;;;;;24.30;55.20;;;;;;5080089;28;19944;-82
2022/08/15 08:15:20;;;;;;;;;;;24.20;55.50;;;;;;5078125;28;19932;-82
2022/08/15 08:17:53;;;;;;;;;;;24.40;55.70;;;;;;5073348;28;19958;-83
2022/08/15 08:20:29;;;;;;;;;;;24.50;57.00;;;;;;5064876;28;19917;-83
2022/08/15 08:23:01;;;;;;;;;;;24.50;55.70;;;;;;5055716;28;19916;-82
2022/08/15 08:25:33;;;;;;;;;;;24.60;55.40;;;;;;5076385;28;19920;-83
2022/08/15 08:28:14;;;;;;;;;;;24.50;55.80;;;;;;5056174;28;19919;-83
2022/08/15 08:30:46;;;;;;;;;;;24.60;55.70;;;;;;5057469;28;19920;-83
2022/08/15 08:33:19;;;;;;;;;;;24.60;55.40;;;;;;5054469;28;19997;-83
2022/08/15 08:35:48;;;;;;;;;;;24.70;55.60;;;;;;5047388;28;19916;-82
2022/08/15 08:38:16;;;;;;;;;;;24.60;55.80;;;;;;5066646;28;19982;-82
2022/08/15 08:43:49;;;;;;;;;;;24.50;56.40;;;;;;5061892;28;19939;-83
2022/08/15 08:46:21;;;;;;;;;;;24.50;56.40;;;;;;5065259;28;19998;-83
2022/08/15 08:48:47;;;;;;;;;;;24.40;56.00;;;;;;5074016;28;19912;-82
2022/08/15 08:51:21;;;;;;;;;;;24.20;56.90;;;;;;5063519;28;19927;-83
2022/08/15 08:53:55;;;;;;;;;;;24.30;57.30;;;;;;5072049;28;20011;-82
2022/08/15 08:56:22;;;;;;;;;;;24.20;57.30;;;;;;5056410;28;20023;-82
2022/08/15 08:58:50;;;;;;;;;;;24.20;57.40;;;;;;5043365;28;19934;-83
2022/08/15 09:01:19;;;;;;;;;;;24.20;57.50;;;;;;5060145;28;19934;-83
2022/08/15 09:03:47;;;;;;;;;;;24.20;58.30;;;;;;5044239;28;19923;-82
2022/08/15 09:06:15;;;;;;;;;;;24.20;57.90;;;;;;5057120;28;19920;-83
2022/08/15 09:08:51;;;;;;;;;;;24.10;57.70;;;;;;5062445;28;19916;-83
2022/08/15 09:11:21;;;;;;;;;;;24.10;58.20;;;;;;5056285;28;20326;-82
2022/08/15 09:13:46;;;;;;;;;;;24.10;58.50;;;;;;5048734;28;20367;-84
2022/08/15 09:16:21;;;;;;;;;;;24.10;58.00;;;;;;5068993;28;19931;-83
2022/08/15 09:19:00;;;;;;;;;;;24.10;58.80;;;;;;5067269;28;19947;-83
2022/08/15 09:21:26;;;;;;;;;;;24.30;58.30;;;;;;5038766;28;20409;-82
2022/08/15 09:23:54;;;;;;;;;;;24.20;58.80;;;;;;5064171;28;19912;-82
2022/08/15 09:26:41;;;;;;;;;;;24.10;58.70;;;;;;5066244;28;19991;-83
2022/08/15 09:29:33;;;;;;;;;;;24.10;58.60;;;;;;5069109;28;20371;-82
2022/08/15 09:31:58;;;;;;;;;;;24.10;59.00;;;;;;5074993;28;19968;-82
2022/08/15 09:34:24;;;;;;;;;;;24.20;58.60;;;;;;5060172;28;19985;-83
2022/08/15 09:37:06;;;;;;;;;;;24.30;58.30;;;;;;5046513;28;19916;-82
2022/08/15 09:39:55;;;;;;;;;;;24.20;58.00;;;;;;5055922;28;19913;-82
2022/08/15 09:42:35;;;;;;;;;;;24.20;58.50;;;;;;5054112;28;20015;-82
2022/08/15 09:45:13;;;;;;;;;;;24.40;58.00;;;;;;5057930;22;19932;-84
2022/08/15 09:47:40;;;;;;;;;;;24.50;58.00;;;;;;5020295;28;19913;-82
2022/08/15 09:50:05;;;;;;;;;;;24.80;57.00;;;;;;5027550;28;20295;-82
2022/08/15 09:52:35;;;;;;;;;;;25.00;56.20;;;;;;5036192;28;19921;-83
2022/08/15 09:55:24;;;;;;;;;;;25.30;56.00;;;;;;5025757;28;19913;-83
2022/08/15 09:57:54;;;;;;;;;;;25.60;54.80;;;;;;5028933;28;19933;-84
2022/08/15 10:00:38;;;;;;;;;;;25.70;54.90;;;;;;5011812;28;20252;-83
2022/08/15 10:03:17;;;;;;;;;;;25.90;54.60;;;;;;5025406;28;19960;-82
2022/08/15 10:05:45;;;;;;;;;;;26.00;54.30;;;;;;5051401;28;19927;-83
2022/08/15 10:08:13;;;;;;;;;;;26.00;54.30;;;;;;5015245;28;20000;-84
2022/08/15 10:11:08;;;;;;;;;;;26.00;54.20;;;;;;5024726;28;19917;-83
2022/08/15 10:13:37;;;;;;;;;;;26.00;54.00;;;;;;5003786;28;19917;-85
2022/08/15 10:16:02;;;;;;;;;;;25.90;54.30;;;;;;5031429;28;19996;-83
2022/08/15 10:18:27;;;;;;;;;;;26.00;54.40;;;;;;5015264;28;19959;-84
2022/08/15 10:20:56;;;;;;;;;;;26.10;53.90;;;;;;5015159;28;20153;-84
2022/08/15 10:23:31;;;;;;;;;;;26.10;54.20;;;;;;5026513;28;19921;-84
2022/08/15 10:26:15;;;;;;;;;;;26.10;54.10;;;;;;5033761;28;19917;-83
2022/08/15 10:28:56;;;;;;;;;;;26.20;54.10;;;;;;5019739;28;19984;-83
2022/08/15 10:31:24;;;;;;;;;;;26.30;54.00;;;;;;5046565;28;19913;-84
2022/08/15 10:33:53;;;;;;;;;;;26.50;54.30;;;;;;5052386;28;19988;-83
2022/08/15 10:36:28;;;;;;;;;;;26.50;53.50;;;;;;5014723;28;20537;-84
2022/08/15 10:39:13;;;;;;;;;;;26.50;53.30;;;;;;5028366;28;19921;-84
2022/08/15 10:41:51;;;;;;;;;;;26.70;53.40;;;;;;5049490;28;19917;-85
2022/08/15 10:44:41;;;;;;;;;;;27.00;52.50;;;;;;5048579;28;20276;-83
2022/08/15 10:47:19;;;;;;;;;;;27.00;52.10;;;;;;5020639;28;20005;-82
2022/08/15 10:49:45;;;;;;;;;;;27.00;53.00;;;;;;5020303;28;20011;-83
2022/08/15 10:56:06;;;;;;;;;;;27.40;52.80;;;;;;4963247;28;19918;-83
2022/08/15 10:58:41;;;;;;;;;;;27.40;52.30;;;;;;4996602;28;19914;-84
2022/08/15 11:01:31;;;;;;;;;;;27.60;51.50;;;;;;5044373;28;19945;-84
2022/08/15 11:04:02;;;;;;;;;;;27.60;51.10;;;;;;5011677;28;19921;-84
2022/08/15 11:06:28;;;;;;;;;;;27.40;51.10;;;;;;5033890;28;20339;-82
2022/08/15 11:09:03;;;;;;;;;;;27.30;51.30;;;;;;5036127;28;19909;-82
2022/08/15 11:11:32;;;;;;;;;;;27.40;51.10;;;;;;5031653;28;20008;-83
2022/08/15 11:13:59;;;;;;;;;;;27.30;51.80;;;;;;5032780;28;19913;-83
2022/08/15 11:16:35;;;;;;;;;;;27.40;52.00;;;;;;5016154;28;20089;-83
2022/08/15 11:19:11;;;;;;;;;;;27.20;52.20;;;;;;5020943;28;20245;-83
2022/08/15 11:21:36;;;;;;;;;;;27.00;52.30;;;;;;5055042;28;19921;-84
2022/08/15 11:24:07;;;;;;;;;;;26.90;52.30;;;;;;5039578;28;20303;-83
2022/08/15 11:26:34;;;;;;;;;;;27.00;53.00;;;;;;5065009;28;19901;-83
2022/08/15 11:29:10;;;;;;;;;;;27.10;52.50;;;;;;5059852;28;19919;-84
2022/08/15 11:31:55;;;;;;;;;;;27.10;52.50;;;;;;5017085;28;19913;-81
2022/08/15 11:34:29;;;;;;;;;;;27.20;52.40;;;;;;5038076;28;19925;-84
2022/08/15 11:37:05;;;;;;;;;;;27.30;52.40;;;;;;5030669;28;19919;-85
2022/08/15 11:39:31;;;;;;;;;;;27.40;52.50;;;;;;5045545;28;20008;-85
2022/08/15 11:45:03;;;;;;;;;;;27.60;51.60;;;;;;5046738;28;19940;-82
2022/08/15 11:47:30;;;;;;;;;;;27.50;51.50;;;;;;5044661;28;19921;-83
2022/08/15 11:49:58;;;;;;;;;;;27.50;51.40;;;;;;5044482;28;19958;-83
2022/08/15 11:52:27;;;;;;;;;;;27.60;51.40;;;;;;5055866;28;19909;-83
2022/08/15 11:55:12;;;;;;;;;;;27.50;52.20;;;;;;5021691;28;19928;-83
2022/08/15 11:57:45;;;;;;;;;;;27.50;51.90;;;;;;5039597;28;19920;-81
2022/08/15 12:00:15;;;;;;;;;;;27.50;52.60;;;;;;5053638;28;20300;-81
2022/08/15 12:02:40;;;;;;;;;;;27.40;52.50;;;;;;5034505;28;19909;-82
2022/08/15 12:05:14;;;;;;;;;;;27.30;52.80;;;;;;5051393;28;20012;-83
2022/08/15 12:07:42;;;;;;;;;;;27.30;53.20;;;;;;5042853;28;19915;-82
2022/08/15 12:10:18;;;;;;;;;;;27.20;51.70;;;;;;5067345;28;19949;-81
2022/08/15 12:12:46;;;;;;;;;;;27.20;52.00;;;;;;5049444;28;20395;-84
2022/08/15 12:15:13;;;;;;;;;;;27.10;52.20;;;;;;5027181;28;19913;-83
2022/08/15 12:17:39;;;;;;;;;;;27.00;52.70;;;;;;5018356;28;19909;-82
2022/08/15 12:20:05;;;;;;;;;;;27.10;52.70;;;;;;5022807;28;19924;-83
2022/08/15 12:22:33;;;;;;;;;;;27.30;53.10;;;;;;5030651;28;19913;-83
2022/08/15 12:24:59;;;;;;;;;;;27.30;52.80;;;;;;5050425;28;19936;-80
2022/08/15 12:27:25;;;;;;;;;;;27.30;52.90;;;;;;5071859;28;19968;-81
2022/08/15 12:29:50;;;;;;;;;;;27.30;53.40;;;;;;5045766;28;19924;-82
2022/08/15 12:32:16;;;;;;;;;;;27.00;53.60;;;;;;5028866;28;19923;-83
2022/08/15 12:34:43;;;;;;;;;;;27.00;53.10;;;;;;5061555;28;19939;-83
2022/08/15 12:37:11;;;;;;;;;;;26.80;53.30;;;;;;5036414;28;19914;-84
2022/08/15 12:39:38;;;;;;;;;;;26.70;53.80;;;;;;5038124;28;19917;-84
2022/08/15 12:42:04;;;;;;;;;;;26.50;54.20;;;;;;5038868;28;19919;-83
2022/08/15 12:44:33;;;;;;;;;;;26.50;54.20;;;;;;5039855;28;19917;-84
2022/08/15 12:46:59;;;;;;;;;;;26.50;54.40;;;;;;5053249;28;19913;-83
2022/08/15 12:49:25;;;;;;;;;;;26.50;54.70;;;;;;5039059;28;19963;-84
2022/08/15 12:51:51;;;;;;;;;;;26.50;55.10;;;;;;5053355;28;19975;-84
2022/08/15 12:54:17;;;;;;;;;;;26.50;55.60;;;;;;5054287;28;20046;-83
2022/08/15 12:56:43;;;;;;;;;;;26.60;55.30;;;;;;5015636;28;19973;-83
2022/08/15 12:59:09;;;;;;;;;;;26.70;54.90;;;;;;5015519;28;20281;-83
2022/08/15 13:01:36;;;;;;;;;;;26.80;54.80;;;;;;5048023;28;20376;-82
2022/08/15 13:04:04;;;;;;;;;;;26.90;54.10;;;;;;5034994;28;19917;-82
2022/08/15 13:06:42;;;;;;;;;;;27.00;54.20;;;;;;5016593;28;19940;-82
2022/08/15 13:09:09;;;;;;;;;;;27.10;53.90;;;;;;5052268;28;19920;-84
2022/08/15 13:11:36;;;;;;;;;;;27.40;53.50;;;;;;5053294;28;19921;-83
2022/08/15 13:14:02;;;;;;;;;;;27.50;53.30;;;;;;5018642;28;19923;-83
2022/08/15 13:16:30;;;;;;;;;;;27.50;53.00;;;;;;5053508;28;19981;-83
2022/08/15 13:18:56;;;;;;;;;;;27.50;52.90;;;;;;5051528;28;20630;-83
2022/08/15 13:24:09;;;;;;;;;;;27.20;53.60;;;;;;5033293;28;20015;-84
2022/08/15 13:26:37;;;;;;;;;;;27.10;53.40;;;;;;5036652;28;19917;-83
2022/08/15 13:29:03;;;;;;;;;;;27.10;54.00;;;;;;5036681;28;19913;-84
2022/08/15 13:31:28;;;;;;;;;;;27.00;53.60;;;;;;5037461;28;20374;-83
2022/08/15 13:33:54;;;;;;;;;;;26.90;54.00;;;;;;5037754;28;19945;-84
2022/08/15 13:36:22;;;;;;;;;;;26.90;54.20;;;;;;5019910;28;19996;-84
2022/08/15 13:38:48;;;;;;;;;;;27.00;54.00;;;;;;5043684;28;19935;-84
2022/08/15 13:41:18;;;;;;;;;;;26.90;54.20;;;;;;5025271;28;20559;-84
2022/08/15 13:43:47;;;;;;;;;;;26.90;53.90;;;;;;5017493;28;19927;-84
2022/08/15 13:46:14;;;;;;;;;;;26.90;54.50;;;;;;5036218;28;19979;-84
2022/08/15 13:48:43;;;;;;;;;;;26.90;53.50;;;;;;5043463;28;20287;-84
2022/08/15 13:51:10;;;;;;;;;;;26.90;54.00;;;;;;5052326;28;19913;-83
2022/08/15 13:53:36;;;;;;;;;;;26.80;54.00;;;;;;5036239;28;20044;-82
2022/08/15 13:56:02;;;;;;;;;;;26.90;54.10;;;;;;5047558;28;19920;-82
2022/08/15 13:58:31;;;;;;;;;;;26.80;54.60;;;;;;5048808;28;19921;-82
2022/08/15 14:00:58;;;;;;;;;;;26.60;55.20;;;;;;5031811;28;19975;-82
2022/08/15 14:03:25;;;;;;;;;;;26.60;55.10;;;;;;5033085;28;20016;-82
2022/08/15 14:05:51;;;;;;;;;;;26.50;56.00;;;;;;5034224;28;20268;-82
2022/08/15 14:08:16;;;;;;;;;;;26.50;55.40;;;;;;5034559;28;20371;-82
2022/08/15 14:10:42;;;;;;;;;;;26.40;55.80;;;;;;5047197;28;19959;-81
2022/08/15 14:13:08;;;;;;;;;;;26.40;55.80;;;;;;5033389;28;19928;-82
2022/08/15 14:15:34;;;;;;;;;;;26.30;55.60;;;;;;5032842;28;19944;-82
2022/08/15 14:17:59;;;;;;;;;;;26.20;55.30;;;;;;5050380;28;19917;-82
2022/08/15 14:20:25;;;;;;;;;;;26.10;55.30;;;;;;5035602;28;19917;-82
2022/08/15 14:22:50;;;;;;;;;;;26.10;55.50;;;;;;5049570;28;19935;-82
2022/08/15 14:25:16;;;;;;;;;;;26.20;55.00;;;;;;5034053;28;19917;-84
2022/08/15 14:27:44;;;;;;;;;;;26.10;54.90;;;;;;5020562;28;19924;-82
2022/08/15 14:30:12;;;;;;;;;;;26.30;54.80;;;;;;5036749;28;19913;-82
2022/08/15 14:32:37;;;;;;;;;;;26.50;54.60;;;;;;5034436;28;19928;-82
2022/08/15 14:35:04;;;;;;;;;;;26.50;54.40;;;;;;5009095;28;19999;-81
2022/08/15 14:37:29;;;;;;;;;;;26.50;54.50;;;;;;5044582;28;19967;-83
2022/08/15 14:39:55;;;;;;;;;;;26.60;54.60;;;;;;5027892;28;19933;-82
2022/08/15 14:42:23;;;;;;;;;;;26.60;54.30;;;;;;5033337;28;20414;-81
2022/08/15 14:44:49;;;;;;;;;;;26.50;53.90;;;;;;5028351;28;19924;-82